Flight Track Log - Related Links

Times and Time Zones

All times are in EDT time to prevent confusion due to time zone crossing. See the GJS6221 flight status page for this flight to view local times or setup timezone preferences in your user account.

Time Position Orientation Groundspeed Altitude Reporting Facility
EDT Latitude Longitude Course Direction KTS MPH feet Rate Location/Type
Tue 08:51:42 AM 45.4475 -73.7536 189° South 442 509 1,300  Level Boston Center
Tue 08:52:40 AM 45.4114 -73.8031 224° Southwest 318 366 3,700 2,494 Climbing Boston Center
Tue 08:53:11 AM 45.3500 -73.8167 189° South 230 265 5,000 2,440 Climbing Montreal Center
Tue 08:54:11 AM 45.3000 -73.8500 205° Southwest 260 299 7,400 2,650 Climbing Montreal Center
Tue 08:55:11 AM 45.2167 -73.8833 196° South 270 311 10,300 2,500 Climbing Montreal Center
Tue 08:56:00 AM 44.9964 -74.0740 207° Southwest  Level FlightAware Approximate
Tue 08:56:11 AM 45.1333 -73.9333 203° Southwest 300 345 12,400  Level Montreal Center
Tue 08:57:00 AM 44.9100 -74.0888 189° South  Level FlightAware Approximate
Tue 08:57:11 AM 45.0500 -73.9500 188° South 330 380 14,200  Level Montreal Center
Tue 08:58:11 AM 44.9667 -74.0000 203° Southwest 350 403 16,400 2,250 Climbing Montreal Center
Tue 08:59:11 AM 44.8667 -74.0333 193° South 360 414 18,700 2,133 Climbing Montreal Center
Tue 08:59:41 AM 44.8294 -74.0411 188° South 357 411 19,600 1,846 Climbing Boston Center
Tue 09:00:42 AM 44.7339 -74.0267 174° South 378 435 21,500 1,884 Climbing Boston Center
Tue 09:01:42 AM 44.6317 -74.0181 177° South 383 441 23,400 1,900 Climbing Boston Center
Tue 09:02:42 AM 44.5278 -74.0067 176° South 383 441 25,300 1,729 Climbing Boston Center
Tue 09:03:40 AM 44.4239 -73.9922 174° South 383 441 26,800 1,261 Climbing Boston Center
Tue 09:04:41 AM 44.3197 -73.9836 177° South 383 441 27,800 896 Climbing Boston Center
Tue 09:05:54 AM 44.2117 -73.9694 175° South 388 447 28,800 992 Climbing Boston Center
Tue 09:06:54 AM 44.0681 -73.9542 176° South 393 452 30,000 600 Climbing Boston Center
Tue 09:07:54 AM 43.9578 -73.9428 176° South 410 472 30,000  Level Boston Center
Tue 09:08:53 AM 43.8453 -73.9256 174° South 410 472 30,000 -403 Level Boston Center
Tue 09:09:53 AM 43.7350 -73.9142 176° South 404 465 29,200 -793 Descending Boston Center
Tue 09:10:54 AM 43.6394 -73.9061 177° South 404 465 28,400 -942 Descending Boston Center
Tue 09:11:54 AM 43.5292 -73.8919 175° South 404 465 27,300 -1,068 Descending Boston Center
Tue 09:12:52 AM 43.4189 -73.8778 175° South 404 465 26,300 -966 Descending Boston Center
Tue 09:13:52 AM 43.3086 -73.8667 176° South 404 465 25,400 -942 Descending Boston Center
Tue 09:14:53 AM 43.1981 -73.8556 176° South 404 465 24,400 -984 Descending Boston Center
Tue 09:15:54 AM 43.0900 -73.8444 176° South 404 465 23,400 -1,059 Descending Boston Center
Tue 09:16:52 AM 42.9797 -73.8306 175° South 404 465 22,300 -763 Descending Boston Center
Tue 09:17:52 AM 42.8692 -73.8197 176° South 404 465 21,900 -149 Descending Boston Center
Tue 09:18:53 AM 42.7569 -73.8058 175° South 404 465 22,000 49 Climbing Boston Center
Tue 09:19:54 AM 42.6447 -73.7864 173° South 404 465 22,000  Level Boston Center
Tue 09:20:52 AM 42.5364 -73.7617 170° South 404 465 22,000 -559 Level Boston Center
Tue 09:21:52 AM 42.4242 -73.7422 173° South 404 465 20,900 -950 Descending Boston Center
Tue 09:22:52 AM 42.3244 -73.7206 171° South 394 453 20,100 -829 Descending Boston Center
Tue 09:23:55 AM 42.2247 -73.6933 169° South 350 403 19,200 -545 Descending Boston Center
Tue 09:24:53 AM 42.1414 -73.6833 175° South 345 397 19,000 -101 Descending Boston Center
Tue 09:25:54 AM 42.0417 -73.6561 169° South 340 391 19,000  Level Boston Center
Tue 09:26:52 AM 41.9481 -73.6375 172° South 340 391 19,000 -446 Level Boston Center
Tue 09:27:55 AM 41.8608 -73.6025 163° South 338 389 18,100 -1,000 Descending Boston Center
Tue 09:28:52 AM 41.7736 -73.5647 162° South 331 381 17,000 -1,282 Descending Boston Center
Tue 09:29:52 AM 41.6908 -73.5242 160° South 326 375 15,600 -1,385 Descending Boston Center
Tue 09:32:07 AM 41.6000 -73.6167 217° Southwest 277 319 12,500 -1,403 Descending New York TRACON
Tue 09:33:13 AM 41.5333 -73.6833 217° Southwest 269 310 10,900 -1,400 Descending New York TRACON
Tue 09:34:07 AM 41.4833 -73.7167 207° Southwest 260 299 9,700 -1,000 Descending New York TRACON
Tue 09:35:07 AM 41.4167 -73.7500 201° Southwest 245 282 9,000 -835 Descending New York TRACON
Tue 09:36:02 AM 41.3667 -73.7833 207° Southwest 234 269 8,100 -1,368 Descending New York TRACON
Tue 09:37:01 AM 41.3000 -73.7667 169° South 255 293 6,400 -1,563 Descending New York TRACON
Tue 09:38:01 AM 41.2500 -73.7167 143° Southeast 260 299 5,000 -1,105 Descending New York TRACON
Tue 09:38:55 AM 41.1833 -73.6667 151° Southeast 257 296 4,300 -500 Descending New York TRACON
Tue 09:40:01 AM 41.1167 -73.6333 159° South 250 288 4,000 -150 Descending New York TRACON
Tue 09:40:55 AM 41.0667 -73.6500 194° South 245 282 4,000  Level New York TRACON
Tue 09:41:55 AM 41.0167 -73.6833 207° Southwest 186 214 4,000 -400 Level New York TRACON
Tue 09:42:55 AM 40.9667 -73.7167 207° Southwest 186 214 3,200 -496 Descending New York TRACON
Tue 09:43:56 AM 40.9333 -73.7500 217° Southwest 179 206 3,000 -450 Descending New York TRACON
Tue 09:44:55 AM 40.8833 -73.7833 207° Southwest 183 211 2,300 -800 Descending New York TRACON
Tue 09:45:56 AM 40.8500 -73.8167 217° Southwest 154 177 1,400 -783 Descending New York TRACON
Tue 09:46:50 AM 40.8167 -73.8500 217° Southwest 136 157 800 -667 Descending New York TRACON
Tue 09:48:00 AM 40.7772 -73.8726 180° South  Level Estimated

Login

Don't have an account? Register now (free) for customized features, flight alerts, and more!